sensor_id;sensor_type;location;lat;lon;timestamp;pressure;altitude;pressure_sealevel;temperature;humidity
67397;BME280;57728;50.448;18.824;2023-05-29T00:00:54;98039.75;;;15.48;46.50
67397;BME280;57728;50.448;18.824;2023-05-29T00:02:56;98055.75;;;15.62;46.39
67397;BME280;57728;50.448;18.824;2023-05-29T00:04:57;98038.66;;;15.50;46.46
67397;BME280;57728;50.448;18.824;2023-05-29T00:06:58;98043.63;;;15.53;46.61
67397;BME280;57728;50.448;18.824;2023-05-29T00:09:00;98044.16;;;15.55;46.54
67397;BME280;57728;50.448;18.824;2023-05-29T00:11:02;98072.22;;;15.62;46.58
67397;BME280;57728;50.448;18.824;2023-05-29T00:13:03;98056.00;;;15.60;46.87
67397;BME280;57728;50.448;18.824;2023-05-29T00:15:06;98060.09;;;15.58;46.86
67397;BME280;57728;50.448;18.824;2023-05-29T00:17:07;98035.34;;;15.47;46.83
67397;BME280;57728;50.448;18.824;2023-05-29T00:19:09;98026.78;;;15.39;46.86
67397;BME280;57728;50.448;18.824;2023-05-29T00:21:12;98031.72;;;15.42;47.02
67397;BME280;57728;50.448;18.824;2023-05-29T00:23:14;97970.81;;;15.02;46.85
67397;BME280;57728;50.448;18.824;2023-05-29T00:25:15;97940.75;;;14.80;47.13
67397;BME280;57728;50.448;18.824;2023-05-29T00:27:18;98055.69;;;15.52;47.12
67397;BME280;57728;50.448;18.824;2023-05-29T00:29:19;98011.59;;;15.26;47.16
67397;BME280;57728;50.448;18.824;2023-05-29T00:31:23;98050.94;;;15.42;47.04
67397;BME280;57728;50.448;18.824;2023-05-29T00:33:26;98054.00;;;15.45;47.07
67397;BME280;57728;50.448;18.824;2023-05-29T00:35:27;97920.47;;;14.54;47.15
67397;BME280;57728;50.448;18.824;2023-05-29T00:37:28;97908.31;;;14.44;47.25
67397;BME280;57728;50.448;18.824;2023-05-29T00:39:30;98052.59;;;15.43;47.16
67397;BME280;57728;50.448;18.824;2023-05-29T00:41:32;98023.38;;;15.26;47.31
67397;BME280;57728;50.448;18.824;2023-05-29T00:43:33;97944.78;;;14.72;47.12
67397;BME280;57728;50.448;18.824;2023-05-29T00:45:35;97876.72;;;14.32;47.21
67397;BME280;57728;50.448;18.824;2023-05-29T00:47:41;98007.91;;;15.10;47.35
67397;BME280;57728;50.448;18.824;2023-05-29T00:49:44;98061.63;;;15.38;47.45
67397;BME280;57728;50.448;18.824;2023-05-29T00:51:48;98037.16;;;15.37;47.54
67397;BME280;57728;50.448;18.824;2023-05-29T00:53:53;98017.56;;;15.18;47.47
67397;BME280;57728;50.448;18.824;2023-05-29T00:55:54;98005.44;;;15.13;47.64
67397;BME280;57728;50.448;18.824;2023-05-29T00:57:56;97962.91;;;14.78;47.79
67397;BME280;57728;50.448;18.824;2023-05-29T00:59:58;97985.00;;;14.94;47.85
67397;BME280;57728;50.448;18.824;2023-05-29T01:02:02;97938.34;;;14.61;47.60
67397;BME280;57728;50.448;18.824;2023-05-29T01:04:05;97921.28;;;14.49;47.62
67397;BME280;57728;50.448;18.824;2023-05-29T01:06:07;97980.28;;;14.89;48.10
67397;BME280;57728;50.448;18.824;2023-05-29T01:08:09;98005.91;;;15.05;47.91
67397;BME280;57728;50.448;18.824;2023-05-29T01:10:12;97892.63;;;14.35;47.77
67397;BME280;57728;50.448;18.824;2023-05-29T01:17:29;98030.19;;;15.19;48.13
67397;BME280;57728;50.448;18.824;2023-05-29T01:22:11;98033.47;;;15.16;48.11
67397;BME280;57728;50.448;18.824;2023-05-29T01:26:55;98030.72;;;15.16;48.42
67397;BME280;57728;50.448;18.824;2023-05-29T01:29:05;98019.94;;;15.09;48.32
67397;BME280;57728;50.448;18.824;2023-05-29T01:31:10;97919.88;;;14.47;48.56
67397;BME280;57728;50.448;18.824;2023-05-29T01:33:15;98003.38;;;14.99;48.78
67397;BME280;57728;50.448;18.824;2023-05-29T01:35:17;98031.53;;;15.16;48.55
67397;BME280;57728;50.448;18.824;2023-05-29T01:37:19;98000.91;;;14.97;48.39
67397;BME280;57728;50.448;18.824;2023-05-29T01:39:20;98029.56;;;15.11;48.81
67397;BME280;57728;50.448;18.824;2023-05-29T01:41:26;98022.97;;;15.07;48.83
67397;BME280;57728;50.448;18.824;2023-05-29T01:43:31;98009.66;;;14.94;49.04
67397;BME280;57728;50.448;18.824;2023-05-29T01:45:33;98019.38;;;15.07;49.21
67397;BME280;57728;50.448;18.824;2023-05-29T01:47:36;97919.03;;;14.46;49.00
67397;BME280;57728;50.448;18.824;2023-05-29T01:49:39;97968.63;;;14.72;49.16
67397;BME280;57728;50.448;18.824;2023-05-29T01:51:43;98004.38;;;14.87;49.35
67397;BME280;57728;50.448;18.824;2023-05-29T01:53:44;98011.31;;;14.95;49.07
67397;BME280;57728;50.448;18.824;2023-05-29T01:55:47;98022.22;;;14.90;49.13
67397;BME280;57728;50.448;18.824;2023-05-29T01:57:49;98028.50;;;14.85;49.65
67397;BME280;57728;50.448;18.824;2023-05-29T01:59:51;97972.47;;;14.49;49.66
67397;BME280;57728;50.448;18.824;2023-05-29T02:01:54;97997.81;;;14.61;49.74
67397;BME280;57728;50.448;18.824;2023-05-29T02:03:55;97951.97;;;14.29;49.67
67397;BME280;57728;50.448;18.824;2023-05-29T02:05:57;98013.44;;;14.60;49.94
67397;BME280;57728;50.448;18.824;2023-05-29T02:08:00;98015.28;;;14.55;50.26
67397;BME280;57728;50.448;18.824;2023-05-29T02:10:03;97992.06;;;14.35;50.13
67397;BME280;57728;50.448;18.824;2023-05-29T02:12:05;97971.59;;;14.21;50.21
67397;BME280;57728;50.448;18.824;2023-05-29T02:14:08;97927.00;;;13.98;50.43
67397;BME280;57728;50.448;18.824;2023-05-29T02:16:09;97993.69;;;14.36;50.44
67397;BME280;57728;50.448;18.824;2023-05-29T02:18:14;97996.44;;;14.36;50.65
67397;BME280;57728;50.448;18.824;2023-05-29T02:20:17;97990.06;;;14.31;50.84
67397;BME280;57728;50.448;18.824;2023-05-29T02:22:18;97951.13;;;14.01;50.67
67397;BME280;57728;50.448;18.824;2023-05-29T02:24:19;97980.91;;;14.20;50.71
67397;BME280;57728;50.448;18.824;2023-05-29T02:26:22;97876.44;;;13.56;50.86
67397;BME280;57728;50.448;18.824;2023-05-29T02:28:25;97860.06;;;13.39;50.80
67397;BME280;57728;50.448;18.824;2023-05-29T02:30:27;97977.34;;;14.19;50.86
67397;BME280;57728;50.448;18.824;2023-05-29T02:32:30;97989.84;;;14.32;51.17
67397;BME280;57728;50.448;18.824;2023-05-29T02:34:32;97849.94;;;13.40;50.92
67397;BME280;57728;50.448;18.824;2023-05-29T02:36:33;97976.06;;;14.27;51.21
67397;BME280;57728;50.448;18.824;2023-05-29T02:38:39;98013.00;;;14.47;51.04
67397;BME280;57728;50.448;18.824;2023-05-29T02:40:41;97963.38;;;14.21;50.93
67397;BME280;57728;50.448;18.824;2023-05-29T02:42:42;97812.22;;;13.20;51.07
67397;BME280;57728;50.448;18.824;2023-05-29T02:44:45;98004.19;;;14.44;51.35
67397;BME280;57728;50.448;18.824;2023-05-29T02:46:46;97952.59;;;14.09;51.36
67397;BME280;57728;50.448;18.824;2023-05-29T02:48:47;98001.16;;;14.41;51.41
67397;BME280;57728;50.448;18.824;2023-05-29T02:50:49;97940.69;;;13.98;51.41
67397;BME280;57728;50.448;18.824;2023-05-29T02:52:51;97973.44;;;14.15;51.64
67397;BME280;57728;50.448;18.824;2023-05-29T02:54:52;98003.00;;;14.35;51.67
67397;BME280;57728;50.448;18.824;2023-05-29T02:56:55;97884.72;;;13.62;51.43
67397;BME280;57728;50.448;18.824;2023-05-29T02:58:57;97999.41;;;14.35;51.65
67397;BME280;57728;50.448;18.824;2023-05-29T03:00:58;97999.16;;;14.36;51.69
67397;BME280;57728;50.448;18.824;2023-05-29T03:03:02;97941.00;;;14.02;51.80
67397;BME280;57728;50.448;18.824;2023-05-29T03:05:04;97994.28;;;14.38;52.05
67397;BME280;57728;50.448;18.824;2023-05-29T03:07:05;97992.34;;;14.39;52.00
67397;BME280;57728;50.448;18.824;2023-05-29T03:09:08;97847.84;;;13.47;51.79
67397;BME280;57728;50.448;18.824;2023-05-29T03:11:09;97974.41;;;14.26;52.06
67397;BME280;57728;50.448;18.824;2023-05-29T03:13:14;97978.28;;;14.30;51.99
67397;BME280;57728;50.448;18.824;2023-05-29T03:15:28;97958.44;;;14.18;52.00
67397;BME280;57728;50.448;18.824;2023-05-29T03:17:29;97985.78;;;14.40;52.15
67397;BME280;57728;50.448;18.824;2023-05-29T03:19:32;97862.06;;;13.66;51.66
67397;BME280;57728;50.448;18.824;2023-05-29T03:21:34;97967.06;;;14.32;51.93
67397;BME280;57728;50.448;18.824;2023-05-29T03:23:36;97972.38;;;14.38;51.75
67397;BME280;57728;50.448;18.824;2023-05-29T03:25:37;98006.81;;;14.56;51.84
67397;BME280;57728;50.448;18.824;2023-05-29T03:27:39;97954.72;;;14.29;52.01
67397;BME280;57728;50.448;18.824;2023-05-29T03:29:46;98001.06;;;14.58;51.70
67397;BME280;57728;50.448;18.824;2023-05-29T03:31:47;97950.91;;;14.30;51.78
67397;BME280;57728;50.448;18.824;2023-05-29T03:33:56;97948.09;;;14.25;51.81
67397;BME280;57728;50.448;18.824;2023-05-29T03:36:03;98000.22;;;14.57;52.05
67397;BME280;57728;50.448;18.824;2023-05-29T03:38:07;97948.44;;;14.28;51.89
67397;BME280;57728;50.448;18.824;2023-05-29T03:40:09;97931.56;;;14.15;51.76
67397;BME280;57728;50.448;18.824;2023-05-29T03:42:13;97998.31;;;14.58;51.58
67397;BME280;57728;50.448;18.824;2023-05-29T03:44:14;97995.59;;;14.58;51.71
67397;BME280;57728;50.448;18.824;2023-05-29T03:46:16;97936.00;;;14.21;51.99
67397;BME280;57728;50.448;18.824;2023-05-29T03:48:17;97980.69;;;14.49;52.00
67397;BME280;57728;50.448;18.824;2023-05-29T03:50:20;97990.91;;;14.58;51.97
67397;BME280;57728;50.448;18.824;2023-05-29T03:52:23;97979.66;;;14.55;51.89
67397;BME280;57728;50.448;18.824;2023-05-29T03:54:24;98000.94;;;14.70;51.54
67397;BME280;57728;50.448;18.824;2023-05-29T03:56:25;97982.09;;;14.51;51.61
67397;BME280;57728;50.448;18.824;2023-05-29T03:58:28;98007.28;;;14.75;51.58
67397;BME280;57728;50.448;18.824;2023-05-29T04:00:30;98010.63;;;14.77;51.73
67397;BME280;57728;50.448;18.824;2023-05-29T04:02:36;98004.88;;;14.79;51.80
67397;BME280;57728;50.448;18.824;2023-05-29T04:04:39;97871.25;;;14.04;51.52
67397;BME280;57728;50.448;18.824;2023-05-29T04:06:40;97932.97;;;14.44;51.75
67397;BME280;57728;50.448;18.824;2023-05-29T04:08:42;97978.53;;;14.78;51.81
67397;BME280;57728;50.448;18.824;2023-05-29T04:10:44;97999.78;;;14.93;51.51
67397;BME280;57728;50.448;18.824;2023-05-29T04:12:45;97999.28;;;14.96;51.60
67397;BME280;57728;50.448;18.824;2023-05-29T04:14:46;98008.06;;;14.98;51.43
67397;BME280;57728;50.448;18.824;2023-05-29T04:16:48;97938.13;;;14.63;51.76
67397;BME280;57728;50.448;18.824;2023-05-29T04:18:49;97964.06;;;14.83;51.70
67397;BME280;57728;50.448;18.824;2023-05-29T04:20:52;97995.28;;;15.09;51.40
67397;BME280;57728;50.448;18.824;2023-05-29T04:22:56;97982.84;;;15.01;51.60
67397;BME280;57728;50.448;18.824;2023-05-29T04:25:00;98011.25;;;15.17;51.48
67397;BME280;57728;50.448;18.824;2023-05-29T04:27:01;98013.75;;;15.24;51.47
67397;BME280;57728;50.448;18.824;2023-05-29T04:29:04;97929.44;;;14.71;51.62
67397;BME280;57728;50.448;18.824;2023-05-29T04:31:07;98003.06;;;15.22;51.50
67397;BME280;57728;50.448;18.824;2023-05-29T04:33:10;98023.78;;;15.40;51.46
67397;BME280;57728;50.448;18.824;2023-05-29T04:35:17;98004.53;;;15.35;51.06
67397;BME280;57728;50.448;18.824;2023-05-29T04:37:27;97996.56;;;15.34;51.15
67397;BME280;57728;50.448;18.824;2023-05-29T04:39:32;98013.97;;;15.50;51.16
67397;BME280;57728;50.448;18.824;2023-05-29T04:41:35;98019.47;;;15.55;51.04
67397;BME280;57728;50.448;18.824;2023-05-29T04:43:40;98030.78;;;15.63;51.23
67397;BME280;57728;50.448;18.824;2023-05-29T04:45:41;98020.91;;;15.62;51.08
67397;BME280;57728;50.448;18.824;2023-05-29T04:47:43;98021.78;;;15.73;51.19
67397;BME280;57728;50.448;18.824;2023-05-29T04:49:46;98027.31;;;15.78;51.13
67397;BME280;57728;50.448;18.824;2023-05-29T04:51:51;98030.44;;;15.87;51.08
67397;BME280;57728;50.448;18.824;2023-05-29T04:53:54;98013.09;;;15.81;50.68
67397;BME280;57728;50.448;18.824;2023-05-29T04:55:55;98006.56;;;15.93;50.97
67397;BME280;57728;50.448;18.824;2023-05-29T04:57:56;98016.75;;;15.97;50.72
67397;BME280;57728;50.448;18.824;2023-05-29T04:59:59;97995.31;;;15.89;50.42
67397;BME280;57728;50.448;18.824;2023-05-29T05:02:01;98010.53;;;16.12;50.27
67397;BME280;57728;50.448;18.824;2023-05-29T05:04:03;98037.50;;;16.31;50.45
67397;BME280;57728;50.448;18.824;2023-05-29T05:06:06;98034.53;;;16.38;50.19
67397;BME280;57728;50.448;18.824;2023-05-29T05:08:08;97999.56;;;16.23;49.91
67397;BME280;57728;50.448;18.824;2023-05-29T05:10:10;97998.50;;;16.29;49.81
67397;BME280;57728;50.448;18.824;2023-05-29T05:12:13;98034.84;;;16.57;49.79
67397;BME280;57728;50.448;18.824;2023-05-29T05:14:14;98037.34;;;16.63;50.12
67397;BME280;57728;50.448;18.824;2023-05-29T05:16:15;98043.16;;;16.67;49.21
67397;BME280;57728;50.448;18.824;2023-05-29T05:18:18;97988.09;;;16.36;49.44
67397;BME280;57728;50.448;18.824;2023-05-29T05:20:27;98030.50;;;16.66;49.46
67397;BME280;57728;50.448;18.824;2023-05-29T05:22:32;98040.44;;;16.82;49.33
67397;BME280;57728;50.448;18.824;2023-05-29T05:24:34;98031.09;;;16.83;49.22
67397;BME280;57728;50.448;18.824;2023-05-29T05:26:37;98004.66;;;16.72;49.10
67397;BME280;57728;50.448;18.824;2023-05-29T05:28:38;98048.75;;;17.03;49.58
67397;BME280;57728;50.448;18.824;2023-05-29T05:30:40;98037.78;;;17.08;50.59
67397;BME280;57728;50.448;18.824;2023-05-29T05:32:42;98041.91;;;17.11;51.42
67397;BME280;57728;50.448;18.824;2023-05-29T05:34:43;98028.41;;;17.04;51.84
67397;BME280;57728;50.448;18.824;2023-05-29T05:36:45;97990.66;;;16.79;52.46
67397;BME280;57728;50.448;18.824;2023-05-29T05:38:49;98006.91;;;16.85;52.56
67397;BME280;57728;50.448;18.824;2023-05-29T05:40:50;98049.88;;;17.23;52.70
67397;BME280;57728;50.448;18.824;2023-05-29T05:42:58;98025.91;;;17.08;52.87
67397;BME280;57728;50.448;18.824;2023-05-29T05:45:20;98046.03;;;17.18;52.74
67397;BME280;57728;50.448;18.824;2023-05-29T05:47:22;98051.00;;;17.16;52.60
67397;BME280;57728;50.448;18.824;2023-05-29T05:49:24;98026.22;;;17.01;52.70
67397;BME280;57728;50.448;18.824;2023-05-29T05:51:25;98021.81;;;17.00;53.05
67397;BME280;57728;50.448;18.824;2023-05-29T05:53:26;98050.69;;;17.23;52.51
67397;BME280;57728;50.448;18.824;2023-05-29T05:55:28;98048.78;;;17.24;52.84
67397;BME280;57728;50.448;18.824;2023-05-29T05:57:30;98036.38;;;17.16;52.79
67397;BME280;57728;50.448;18.824;2023-05-29T05:59:33;98042.19;;;17.30;52.94
67397;BME280;57728;50.448;18.824;2023-05-29T06:01:38;98026.75;;;17.29;52.91
67397;BME280;57728;50.448;18.824;2023-05-29T06:03:39;98059.53;;;17.51;52.88
67397;BME280;57728;50.448;18.824;2023-05-29T06:05:42;98039.97;;;17.47;52.58
67397;BME280;57728;50.448;18.824;2023-05-29T06:07:45;98055.38;;;17.64;53.22
67397;BME280;57728;50.448;18.824;2023-05-29T06:09:46;97995.41;;;17.35;52.49
67397;BME280;57728;50.448;18.824;2023-05-29T06:11:48;98044.91;;;17.71;52.45
67397;BME280;57728;50.448;18.824;2023-05-29T06:13:51;98018.78;;;17.63;52.16
67397;BME280;57728;50.448;18.824;2023-05-29T06:15:57;98054.28;;;17.96;52.05
67397;BME280;57728;50.448;18.824;2023-05-29T06:17:59;98053.69;;;18.04;52.04
67397;BME280;57728;50.448;18.824;2023-05-29T06:20:03;98053.13;;;18.12;51.50
67397;BME280;57728;50.448;18.824;2023-05-29T06:22:10;98053.34;;;18.26;51.23
67397;BME280;57728;50.448;18.824;2023-05-29T06:24:12;98014.03;;;18.10;50.51
67397;BME280;57728;50.448;18.824;2023-05-29T06:26:14;98034.03;;;18.36;50.16
67397;BME280;57728;50.448;18.824;2023-05-29T06:28:16;97988.09;;;18.16;49.84
67397;BME280;57728;50.448;18.824;2023-05-29T06:30:18;98007.84;;;18.39;50.07
67397;BME280;57728;50.448;18.824;2023-05-29T06:32:20;98046.28;;;18.75;49.97
67397;BME280;57728;50.448;18.824;2023-05-29T06:34:22;98047.84;;;18.86;49.36
67397;BME280;57728;50.448;18.824;2023-05-29T06:36:24;98065.97;;;19.08;49.30
67397;BME280;57728;50.448;18.824;2023-05-29T06:38:26;98066.72;;;19.19;48.89
67397;BME280;57728;50.448;18.824;2023-05-29T06:40:28;98042.72;;;19.14;49.19
67397;BME280;57728;50.448;18.824;2023-05-29T06:42:29;98043.25;;;19.21;48.19
67397;BME280;57728;50.448;18.824;2023-05-29T06:44:34;98038.78;;;19.25;47.99
67397;BME280;57728;50.448;18.824;2023-05-29T06:46:35;98070.56;;;19.57;47.67
67397;BME280;57728;50.448;18.824;2023-05-29T06:48:36;98055.09;;;19.56;47.79
67397;BME280;57728;50.448;18.824;2023-05-29T06:50:39;98064.13;;;19.67;47.62
67397;BME280;57728;50.448;18.824;2023-05-29T06:53:00;98088.00;;;19.87;46.79
67397;BME280;57728;50.448;18.824;2023-05-29T06:55:05;98065.69;;;19.84;46.26
67397;BME280;57728;50.448;18.824;2023-05-29T06:57:07;98074.97;;;19.93;45.55
67397;BME280;57728;50.448;18.824;2023-05-29T06:59:08;98081.44;;;20.07;45.04
67397;BME280;57728;50.448;18.824;2023-05-29T07:01:10;98035.59;;;19.82;44.31
67397;BME280;57728;50.448;18.824;2023-05-29T07:03:18;98065.63;;;20.13;43.52
67397;BME280;57728;50.448;18.824;2023-05-29T07:05:19;98050.53;;;20.05;43.41
67397;BME280;57728;50.448;18.824;2023-05-29T07:07:20;98032.59;;;20.03;43.30
67397;BME280;57728;50.448;18.824;2023-05-29T07:09:22;98078.66;;;20.37;43.23
67397;BME280;57728;50.448;18.824;2023-05-29T07:11:24;98082.31;;;20.56;42.93
67397;BME280;57728;50.448;18.824;2023-05-29T07:13:26;98068.19;;;20.58;42.16
67397;BME280;57728;50.448;18.824;2023-05-29T07:15:28;98081.03;;;20.73;41.93
67397;BME280;57728;50.448;18.824;2023-05-29T07:17:31;98089.78;;;20.80;42.31
67397;BME280;57728;50.448;18.824;2023-05-29T07:19:43;98026.75;;;20.53;41.74
67397;BME280;57728;50.448;18.824;2023-05-29T07:21:45;98072.53;;;20.88;41.42
67397;BME280;57728;50.448;18.824;2023-05-29T07:23:48;98087.78;;;21.05;41.60
67397;BME280;57728;50.448;18.824;2023-05-29T07:25:49;98087.41;;;21.11;40.63
67397;BME280;57728;50.448;18.824;2023-05-29T07:27:52;98085.41;;;21.17;40.10
67397;BME280;57728;50.448;18.824;2023-05-29T07:29:53;98090.56;;;21.24;39.42
67397;BME280;57728;50.448;18.824;2023-05-29T07:31:54;98028.47;;;20.92;39.28
67397;BME280;57728;50.448;18.824;2023-05-29T07:33:58;98065.13;;;21.22;38.34
67397;BME280;57728;50.448;18.824;2023-05-29T07:36:00;98091.66;;;21.42;38.39
67397;BME280;57728;50.448;18.824;2023-05-29T07:38:01;98084.94;;;21.48;38.37
67397;BME280;57728;50.448;18.824;2023-05-29T07:40:04;98091.56;;;21.52;38.48
67397;BME280;57728;50.448;18.824;2023-05-29T07:42:27;98087.25;;;21.60;38.50
67397;BME280;57728;50.448;18.824;2023-05-29T07:44:29;98070.13;;;21.58;37.80
67397;BME280;57728;50.448;18.824;2023-05-29T07:46:31;98082.38;;;21.71;38.05
67397;BME280;57728;50.448;18.824;2023-05-29T07:48:52;98081.78;;;21.74;38.19
67397;BME280;57728;50.448;18.824;2023-05-29T07:50:53;98088.03;;;21.79;38.06
67397;BME280;57728;50.448;18.824;2023-05-29T07:52:55;98073.97;;;21.76;37.45
67397;BME280;57728;50.448;18.824;2023-05-29T07:54:58;98078.63;;;21.80;37.17
67397;BME280;57728;50.448;18.824;2023-05-29T07:57:00;98102.69;;;21.99;37.35
67397;BME280;57728;50.448;18.824;2023-05-29T07:59:04;98043.06;;;21.69;37.16
67397;BME280;57728;50.448;18.824;2023-05-29T08:01:06;98102.19;;;22.11;36.81
67397;BME280;57728;50.448;18.824;2023-05-29T08:03:08;98078.25;;;22.01;36.73
67397;BME280;57728;50.448;18.824;2023-05-29T08:05:32;98092.66;;;22.17;36.70
67397;BME280;57728;50.448;18.824;2023-05-29T08:07:37;98037.59;;;21.96;36.46
67397;BME280;57728;50.448;18.824;2023-05-29T08:09:38;98099.91;;;22.46;35.88
67397;BME280;57728;50.448;18.824;2023-05-29T08:11:40;98086.13;;;22.41;35.83
67397;BME280;57728;50.448;18.824;2023-05-29T08:13:42;98100.53;;;22.57;35.99
67397;BME280;57728;50.448;18.824;2023-05-29T08:15:43;98097.63;;;22.62;34.90
67397;BME280;57728;50.448;18.824;2023-05-29T08:17:45;98103.00;;;22.72;35.28
67397;BME280;57728;50.448;18.824;2023-05-29T08:19:47;98104.53;;;22.78;34.50
67397;BME280;57728;50.448;18.824;2023-05-29T08:21:48;98100.81;;;22.83;35.05
67397;BME280;57728;50.448;18.824;2023-05-29T08:23:50;98095.66;;;22.90;35.72
67397;BME280;57728;50.448;18.824;2023-05-29T08:25:51;97970.06;;;22.20;36.15
67397;BME280;57728;50.448;18.824;2023-05-29T08:27:52;98058.06;;;22.84;35.89
67397;BME280;57728;50.448;18.824;2023-05-29T08:29:54;98099.38;;;23.13;35.88
67397;BME280;57728;50.448;18.824;2023-05-29T08:31:55;98102.31;;;23.17;35.64
67397;BME280;57728;50.448;18.824;2023-05-29T08:33:56;98100.56;;;23.21;35.80
67397;BME280;57728;50.448;18.824;2023-05-29T08:35:59;98092.88;;;23.18;35.56
67397;BME280;57728;50.448;18.824;2023-05-29T08:38:01;98106.91;;;23.35;35.09
67397;BME280;57728;50.448;18.824;2023-05-29T08:40:03;98099.72;;;23.34;35.37
67397;BME280;57728;50.448;18.824;2023-05-29T08:42:13;98079.91;;;23.27;34.76
67397;BME280;57728;50.448;18.824;2023-05-29T08:44:23;98087.72;;;23.48;35.11
67397;BME280;57728;50.448;18.824;2023-05-29T08:46:24;98104.97;;;23.59;34.13
67397;BME280;57728;50.448;18.824;2023-05-29T08:48:29;98105.78;;;23.59;34.12
67397;BME280;57728;50.448;18.824;2023-05-29T08:50:34;98082.38;;;23.51;34.80
67397;BME280;57728;50.448;18.824;2023-05-29T08:52:37;98087.72;;;23.70;35.00
67397;BME280;57728;50.448;18.824;2023-05-29T08:54:40;98103.53;;;23.84;35.02
67397;BME280;57728;50.448;18.824;2023-05-29T08:56:42;98100.75;;;23.84;34.44
67397;BME280;57728;50.448;18.824;2023-05-29T08:58:44;98064.88;;;23.51;34.63
67397;BME280;57728;50.448;18.824;2023-05-29T09:00:48;98093.59;;;23.69;34.63
67397;BME280;57728;50.448;18.824;2023-05-29T09:02:50;98102.31;;;23.76;34.23
67397;BME280;57728;50.448;18.824;2023-05-29T09:04:54;98082.69;;;23.73;35.10
67397;BME280;57728;50.448;18.824;2023-05-29T09:06:59;98108.06;;;23.94;33.76
67397;BME280;57728;50.448;18.824;2023-05-29T09:09:00;98095.06;;;23.89;33.68
67397;BME280;57728;50.448;18.824;2023-05-29T09:11:01;98084.47;;;23.91;34.09
67397;BME280;57728;50.448;18.824;2023-05-29T09:13:04;98105.72;;;24.18;33.89
67397;BME280;57728;50.448;18.824;2023-05-29T09:15:17;98087.38;;;24.17;33.75
67397;BME280;57728;50.448;18.824;2023-05-29T09:17:19;98100.31;;;24.45;34.11
67397;BME280;57728;50.448;18.824;2023-05-29T09:19:21;98073.75;;;24.38;33.73
67397;BME280;57728;50.448;18.824;2023-05-29T09:21:27;98072.66;;;24.57;32.22
67397;BME280;57728;50.448;18.824;2023-05-29T09:23:30;98096.84;;;24.79;32.60
67397;BME280;57728;50.448;18.824;2023-05-29T09:25:39;98097.72;;;25.15;32.91
67397;BME280;57728;50.448;18.824;2023-05-29T09:27:43;98099.91;;;25.53;32.98
67397;BME280;57728;50.448;18.824;2023-05-29T09:29:45;98098.56;;;26.03;32.84
67397;BME280;57728;50.448;18.824;2023-05-29T09:31:48;98098.41;;;26.55;32.40
67397;BME280;57728;50.448;18.824;2023-05-29T09:33:51;98094.69;;;27.11;31.81
67397;BME280;57728;50.448;18.824;2023-05-29T09:35:52;98086.69;;;27.52;29.83
67397;BME280;57728;50.448;18.824;2023-05-29T09:37:54;98098.09;;;28.13;28.66
67397;BME280;57728;50.448;18.824;2023-05-29T09:39:56;98100.78;;;28.68;29.05
67397;BME280;57728;50.448;18.824;2023-05-29T09:41:58;98079.50;;;29.29;29.41
67397;BME280;57728;50.448;18.824;2023-05-29T09:44:00;98052.56;;;29.81;28.40
67397;BME280;57728;50.448;18.824;2023-05-29T09:46:01;98087.09;;;30.58;26.78
67397;BME280;57728;50.448;18.824;2023-05-29T09:48:15;98094.72;;;31.05;26.00
67397;BME280;57728;50.448;18.824;2023-05-29T09:50:19;98069.34;;;31.21;25.36
67397;BME280;57728;50.448;18.824;2023-05-29T09:52:21;98081.09;;;31.62;25.19
67397;BME280;57728;50.448;18.824;2023-05-29T09:54:23;98094.28;;;31.97;24.00
67397;BME280;57728;50.448;18.824;2023-05-29T09:56:26;98085.59;;;32.26;24.22
67397;BME280;57728;50.448;18.824;2023-05-29T09:58:29;98100.88;;;32.71;24.41
67397;BME280;57728;50.448;18.824;2023-05-29T10:00:34;98069.19;;;33.04;23.89
67397;BME280;57728;50.448;18.824;2023-05-29T10:02:36;98089.63;;;33.55;23.62
67397;BME280;57728;50.448;18.824;2023-05-29T10:04:37;98064.84;;;33.71;22.77
67397;BME280;57728;50.448;18.824;2023-05-29T10:06:45;98078.66;;;34.10;22.98
67397;BME280;57728;50.448;18.824;2023-05-29T10:08:50;98090.28;;;34.43;22.41
67397;BME280;57728;50.448;18.824;2023-05-29T10:10:59;98053.94;;;34.04;22.18
67397;BME280;57728;50.448;18.824;2023-05-29T10:13:02;98076.75;;;34.25;22.53
67397;BME280;57728;50.448;18.824;2023-05-29T10:15:12;98072.06;;;34.37;22.21
67397;BME280;57728;50.448;18.824;2023-05-29T10:17:18;98090.13;;;34.70;22.37
67397;BME280;57728;50.448;18.824;2023-05-29T10:19:29;98064.16;;;34.57;22.99
67397;BME280;57728;50.448;18.824;2023-05-29T10:21:37;98079.63;;;34.70;22.85
67397;BME280;57728;50.448;18.824;2023-05-29T10:23:47;98060.63;;;34.71;22.68
67397;BME280;57728;50.448;18.824;2023-05-29T10:25:53;98102.47;;;34.99;22.25
67397;BME280;57728;50.448;18.824;2023-05-29T10:27:59;98098.84;;;34.50;22.27
67397;BME280;57728;50.448;18.824;2023-05-29T10:30:09;98058.47;;;34.12;22.26
67397;BME280;57728;50.448;18.824;2023-05-29T10:32:23;98098.34;;;34.41;22.47
67397;BME280;57728;50.448;18.824;2023-05-29T10:39:24;98074.97;;;34.96;20.51
67397;BME280;57728;50.448;18.824;2023-05-29T10:43:32;98100.34;;;35.41;20.38
67397;BME280;57728;50.448;18.824;2023-05-29T10:47:38;98068.13;;;35.63;20.85
67397;BME280;57728;50.448;18.824;2023-05-29T10:49:49;98059.97;;;35.51;21.05
67397;BME280;57728;50.448;18.824;2023-05-29T10:51:52;98090.00;;;35.77;20.68
67397;BME280;57728;50.448;18.824;2023-05-29T10:53:54;98092.50;;;35.86;21.13
67397;BME280;57728;50.448;18.824;2023-05-29T10:55:56;98091.72;;;36.04;21.13
67397;BME280;57728;50.448;18.824;2023-05-29T10:58:04;98092.97;;;36.13;20.74
67397;BME280;57728;50.448;18.824;2023-05-29T11:00:20;98095.03;;;36.27;19.87
67397;BME280;57728;50.448;18.824;2023-05-29T11:02:24;98028.19;;;36.08;19.87
67397;BME280;57728;50.448;18.824;2023-05-29T11:04:26;98090.22;;;36.42;19.07